Time;durP1;ratioP1;P1;durP2;ratioP2;P2;SDS_P1;SDS_P2;PMS_P1;PMS_P2;Temp;Humidity;BMP_temperature;BMP_pressure;BME280_temperature;BME280_humidity;BME280_pressure;Samples;Min_cycle;Max_cycle;Signal;HPM_P1;HPM_P2
2024/04/25 00:00:26;;;;;;;5.67;1.43;;;;;;;4.81;100.00;100878.06;5545375;25;20222;-38
2024/04/25 00:02:52;;;;;;;4.37;1.20;;;;;;;4.76;100.00;100867.91;5544790;25;19989;-38
2024/04/25 00:05:19;;;;;;;5.45;1.77;;;;;;;4.68;100.00;100878.75;5535675;25;20005;-38
2024/04/25 00:07:45;;;;;;;5.18;1.75;;;;;;;4.71;100.00;100878.38;5529357;26;20009;-38
2024/04/25 00:10:10;;;;;;;3.47;1.60;;;;;;;4.71;100.00;100873.00;5529652;26;19997;-38
2024/04/25 00:12:35;;;;;;;6.33;2.27;;;;;;;4.71;100.00;100872.19;5528853;26;20012;-38
2024/04/25 00:15:01;;;;;;;5.13;1.70;;;;;;;4.61;100.00;100864.47;5529551;26;19993;-38
2024/04/25 00:17:26;;;;;;;3.90;1.67;;;;;;;4.61;100.00;100864.47;5528994;26;20008;-38
2024/04/25 00:19:51;;;;;;;3.77;1.80;;;;;;;4.67;100.00;100868.22;5528874;26;19990;-38
2024/04/25 00:22:17;;;;;;;7.63;2.27;;;;;;;4.61;100.00;100861.78;5528825;26;20506;-38
2024/04/25 00:24:42;;;;;;;4.20;1.53;;;;;;;4.51;100.00;100851.41;5528758;26;20001;-38
2024/04/25 00:27:10;;;;;;;8.07;2.20;;;;;;;4.62;100.00;100858.09;5528681;26;20008;-38
2024/04/25 00:29:37;;;;;;;8.57;1.98;;;;;;;4.55;100.00;100857.22;5528769;26;20025;-38
2024/04/25 00:32:04;;;;;;;5.25;2.00;;;;;;;4.52;100.00;100850.38;5528640;26;20004;-38
2024/04/25 00:34:29;;;;;;;5.88;1.80;;;;;;;4.55;100.00;100851.84;5528605;26;20004;-38
2024/04/25 00:36:54;;;;;;;5.50;1.83;;;;;;;4.54;100.00;100859.06;5528364;26;20321;-38
2024/04/25 00:39:20;;;;;;;5.70;1.73;;;;;;;4.42;100.00;100838.31;5529256;26;20421;-38
2024/04/25 00:41:45;;;;;;;5.53;1.87;;;;;;;4.45;100.00;100835.28;5528567;26;20033;-38
2024/04/25 00:44:10;;;;;;;5.57;1.87;;;;;;;4.42;100.00;100844.50;5528850;26;19997;-38
2024/04/25 00:46:38;;;;;;;5.53;2.00;;;;;;;4.49;100.00;100858.81;5528487;26;19994;-38
2024/04/25 00:49:05;;;;;;;8.48;1.80;;;;;;;4.50;100.00;100843.56;5528144;26;20457;-38
2024/04/25 00:51:31;;;;;;;5.60;2.00;;;;;;;4.46;100.00;100847.66;5528408;26;19998;-38
2024/04/25 00:53:57;;;;;;;4.57;1.70;;;;;;;4.45;100.00;100846.00;5528385;25;19997;-38
2024/04/25 00:56:22;;;;;;;7.37;1.90;;;;;;;4.37;100.00;100847.75;5528085;26;20359;-38
2024/04/25 00:58:49;;;;;;;4.40;1.80;;;;;;;4.37;100.00;100838.91;5528600;26;19997;-38
2024/04/25 01:01:15;;;;;;;6.38;1.65;;;;;;;4.36;100.00;100835.41;5528208;26;19993;-38
2024/04/25 01:03:42;;;;;;;8.35;1.83;;;;;;;4.35;100.00;100833.75;5527865;26;20338;-38
2024/04/25 01:06:08;;;;;;;8.00;2.10;;;;;;;4.34;100.00;100833.91;5528169;26;20030;-38
2024/04/25 01:08:33;;;;;;;6.25;1.98;;;;;;;4.42;100.00;100846.34;5528217;26;19998;-38
2024/04/25 01:10:59;;;;;;;5.28;1.75;;;;;;;4.32;100.00;100844.81;5528546;26;19997;-38
2024/04/25 01:13:24;;;;;;;6.25;2.10;;;;;;;4.36;100.00;100847.94;5528079;26;19994;-38
2024/04/25 01:15:50;;;;;;;5.03;1.70;;;;;;;4.38;100.00;100843.22;5528432;26;20346;-38
2024/04/25 01:18:16;;;;;;;5.35;1.73;;;;;;;4.35;100.00;100844.44;5526746;26;20579;-39
2024/04/25 01:20:41;;;;;;;8.27;2.23;;;;;;;4.33;100.00;100833.09;5528043;26;20496;-38
2024/04/25 01:23:11;;;;;;;9.17;2.13;;;;;;;4.30;100.00;100838.00;5527665;26;20214;-38
2024/04/25 01:25:38;;;;;;;4.60;1.90;;;;;;;4.34;100.00;100840.13;5527944;26;20004;-38
2024/04/25 01:28:05;;;;;;;4.70;1.90;;;;;;;4.32;100.00;100834.09;5527746;26;20315;-38
2024/04/25 01:30:31;;;;;;;4.32;1.70;;;;;;;4.27;100.00;100825.81;5527768;26;20003;-38
2024/04/25 01:32:57;;;;;;;5.65;1.83;;;;;;;4.29;100.00;100826.44;5527660;26;20076;-38
2024/04/25 01:35:24;;;;;;;5.90;1.60;;;;;;;4.24;100.00;100818.16;5528058;26;20001;-38
2024/04/25 01:37:51;;;;;;;4.43;1.55;;;;;;;4.28;100.00;100824.78;5527776;26;20076;-38
2024/04/25 01:40:17;;;;;;;7.13;1.90;;;;;;;4.25;100.00;100819.84;5527848;26;20037;-38
2024/04/25 01:42:43;;;;;;;5.13;1.83;;;;;;;4.28;100.00;100810.59;5527372;26;19997;-38
2024/04/25 01:45:08;;;;;;;3.92;1.40;;;;;;;4.28;100.00;100806.06;5528376;26;20422;-38
2024/04/25 01:47:33;;;;;;;9.20;2.00;;;;;;;4.27;100.00;100812.44;5527805;26;20005;-38
2024/04/25 01:49:59;;;;;;;5.07;1.90;;;;;;;4.33;100.00;100808.16;5527682;26;20029;-38
2024/04/25 01:52:24;;;;;;;7.43;1.93;;;;;;;4.31;100.00;100805.69;5527533;26;19990;-38
2024/04/25 01:54:49;;;;;;;7.00;2.20;;;;;;;4.29;100.00;100809.56;5527393;25;20426;-38
2024/04/25 01:57:15;;;;;;;6.53;1.67;;;;;;;4.30;100.00;100796.00;5527202;26;19989;-38
2024/04/25 01:59:40;;;;;;;5.13;1.37;;;;;;;4.40;100.00;100806.41;5528111;26;20363;-38
2024/04/25 02:02:05;;;;;;;4.30;1.40;;;;;;;4.41;100.00;100800.00;5527476;26;20406;-38
2024/04/25 02:04:31;;;;;;;5.47;1.20;;;;;;;4.43;100.00;100800.63;5528033;26;20004;-38
2024/04/25 02:06:56;;;;;;;3.43;1.30;;;;;;;4.40;100.00;100801.03;5527412;26;20097;-38
2024/04/25 02:09:21;;;;;;;3.17;1.47;;;;;;;4.40;100.00;100798.38;5527353;26;20004;-38
2024/04/25 02:11:47;;;;;;;5.93;1.40;;;;;;;4.38;100.00;100809.25;5526943;26;20015;-38
2024/04/25 02:14:12;;;;;;;6.03;1.80;;;;;;;4.38;100.00;100803.88;5527795;26;19997;-37
2024/04/25 02:16:37;;;;;;;3.63;1.47;;;;;;;4.26;100.00;100792.03;5527915;26;20346;-37
2024/04/25 02:19:03;;;;;;;4.27;1.37;;;;;;;4.36;100.00;100805.94;5527532;26;19997;-37
2024/04/25 02:26:56;;;;;;;4.65;1.50;;;;;;;4.27;100.00;100798.22;5528794;26;20008;-38
2024/04/25 02:29:22;;;;;;;5.57;1.57;;;;;;;4.26;100.00;100789.38;5526550;26;19993;-38
2024/04/25 02:31:47;;;;;;;3.17;1.10;;;;;;;4.17;100.00;100779.81;5526751;26;19993;-38
2024/04/25 02:34:12;;;;;;;6.53;1.87;;;;;;;4.22;100.00;100782.72;5526901;26;20008;-37
2024/04/25 02:36:38;;;;;;;3.17;1.57;;;;;;;4.16;100.00;100777.31;5527213;26;20309;-38
2024/04/25 02:39:03;;;;;;;6.50;1.40;;;;;;;4.27;100.00;100787.53;5527221;26;19989;-37
2024/04/25 02:41:29;;;;;;;4.60;1.20;;;;;;;4.22;100.00;100781.91;5526913;26;20008;-37
2024/04/25 02:43:54;;;;;;;3.03;1.17;;;;;;;4.27;100.00;100776.81;5527090;26;19997;-38
2024/04/25 02:46:21;;;;;;;3.67;1.37;;;;;;;4.27;100.00;100779.50;5526830;26;19989;-38
2024/04/25 02:48:47;;;;;;;3.13;1.13;;;;;;;4.17;100.00;100769.09;5526693;26;19993;-38
2024/04/25 02:51:12;;;;;;;4.35;1.63;;;;;;;4.24;100.00;100777.19;5526468;26;20463;-38
2024/04/25 02:53:37;;;;;;;4.03;1.47;;;;;;;4.22;100.00;100774.72;5526447;26;20001;-38
2024/04/25 02:56:03;;;;;;;4.20;1.20;;;;;;;4.26;100.00;100762.59;5527565;26;20004;-38
2024/04/25 02:58:29;;;;;;;4.30;1.40;;;;;;;4.29;100.00;100764.06;5526165;26;19994;-38
2024/04/25 03:00:59;;;;;;;3.30;1.30;;;;;;;4.23;100.00;100757.63;5526513;26;20008;-37
2024/04/25 03:03:24;;;;;;;2.90;1.13;;;;;;;4.26;100.00;100762.59;5526384;26;20009;-38
2024/04/25 03:05:49;;;;;;;3.53;1.40;;;;;;;4.26;100.00;100753.75;5526754;26;20065;-38
2024/04/25 03:08:15;;;;;;;3.73;1.23;;;;;;;4.33;100.00;100758.13;5526789;26;20268;-38
2024/04/25 03:10:40;;;;;;;3.93;1.33;;;;;;;4.33;100.00;100768.84;5526636;26;19998;-38
2024/04/25 03:13:05;;;;;;;3.47;1.63;;;;;;;4.34;100.00;100765.16;5526182;26;20001;-38
2024/04/25 03:15:31;;;;;;;2.30;1.20;;;;;;;4.25;100.00;100757.44;5526543;26;19998;-38
2024/04/25 03:17:56;;;;;;;6.50;1.40;;;;;;;4.32;100.00;100764.50;5526190;26;20004;-38
2024/04/25 03:20:21;;;;;;;3.43;1.30;;;;;;;4.34;100.00;100764.31;5526524;26;20008;-38
2024/04/25 03:22:47;;;;;;;6.03;1.40;;;;;;;4.29;100.00;100756.84;5526370;26;20111;-38
2024/04/25 03:25:12;;;;;;;5.37;1.67;;;;;;;4.34;100.00;100761.63;5526696;26;20303;-38
2024/04/25 03:27:38;;;;;;;3.10;1.20;;;;;;;4.30;100.00;100761.19;5526585;26;19997;-38
2024/04/25 03:30:04;;;;;;;3.03;1.00;;;;;;;4.22;100.00;100755.97;5526584;26;19998;-38
2024/04/25 03:32:30;;;;;;;3.40;1.33;;;;;;;4.13;100.00;100731.19;5525909;26;20000;-38
2024/04/25 03:34:55;;;;;;;6.53;1.37;;;;;;;4.19;100.00;100742.13;5525781;26;20418;-38
2024/04/25 03:37:21;;;;;;;3.93;1.60;;;;;;;4.19;100.00;100753.66;5526164;26;19997;-38
2024/04/25 03:39:46;;;;;;;3.45;1.48;;;;;;;4.11;100.00;100735.06;5527004;26;19997;-38
2024/04/25 03:42:12;;;;;;;4.63;1.53;;;;;;;4.18;100.00;100745.84;5529814;26;19994;-38
2024/04/25 03:44:37;;;;;;;3.07;1.43;;;;;;;4.15;100.00;100749.75;5529583;26;19997;-38
2024/04/25 03:47:03;;;;;;;3.05;1.63;;;;;;;4.13;100.00;100743.72;5529153;26;19997;-38
2024/04/25 03:49:28;;;;;;;5.75;1.50;;;;;;;4.00;100.00;100723.03;5530034;26;19993;-38
2024/04/25 03:51:53;;;;;;;4.80;1.67;;;;;;;4.03;100.00;100736.03;5529738;26;20033;-38
2024/04/25 03:54:19;;;;;;;4.30;1.87;;;;;;;4.08;100.00;100748.81;5529150;26;19994;-38
2024/04/25 03:56:44;;;;;;;3.27;1.90;;;;;;;4.06;100.00;100732.16;5529304;26;20262;-38
2024/04/25 03:59:10;;;;;;;4.50;1.98;;;;;;;4.04;100.00;100731.50;5529585;26;20004;-38
2024/04/25 04:01:35;;;;;;;4.73;1.90;;;;;;;4.03;100.00;100737.88;5529260;26;20385;-38
2024/04/25 04:04:00;;;;;;;3.90;1.70;;;;;;;4.03;100.00;100735.19;5529285;26;19998;-38
2024/04/25 04:06:26;;;;;;;4.60;2.10;;;;;;;3.99;100.00;100736.59;5496319;26;19997;-38
2024/04/25 04:08:51;;;;;;;4.20;1.80;;;;;;;4.01;100.00;100739.91;5529719;26;20075;-38
2024/04/25 04:11:16;;;;;;;3.40;1.63;;;;;;;3.96;100.00;100734.31;5529521;26;19993;-38
2024/04/25 04:13:42;;;;;;;6.97;2.13;;;;;;;4.05;100.00;100731.31;5529351;26;19994;-38
2024/04/25 04:16:10;;;;;;;4.00;1.97;;;;;;;4.07;100.00;100733.81;5529783;26;19993;-38
2024/04/25 04:18:35;;;;;;;4.20;2.00;;;;;;;3.94;100.00;100712.25;5528652;26;20005;-38
2024/04/25 04:21:01;;;;;;;3.13;1.40;;;;;;;4.06;100.00;100724.94;5529052;26;20325;-38
2024/04/25 04:23:26;;;;;;;4.07;2.07;;;;;;;4.03;100.00;100714.63;5528864;26;20009;-38
2024/04/25 04:25:51;;;;;;;3.27;1.53;;;;;;;4.10;100.00;100720.88;5529466;26;20262;-38
2024/04/25 04:28:17;;;;;;;3.60;1.90;;;;;;;4.07;100.00;100715.06;5528837;26;19993;-38
2024/04/25 04:30:42;;;;;;;5.53;2.03;;;;;;;4.12;100.00;100723.34;5529557;26;20002;-38
2024/04/25 04:33:07;;;;;;;6.55;1.77;;;;;;;4.02;100.00;100710.28;5528449;26;20012;-38
2024/04/25 04:35:33;;;;;;;4.23;1.87;;;;;;;4.05;100.00;100706.38;5528787;26;19993;-38
2024/04/25 04:37:58;;;;;;;5.43;2.40;;;;;;;4.11;100.00;100724.38;5528418;26;19989;-38
2024/04/25 04:40:23;;;;;;;4.27;2.23;;;;;;;4.07;100.00;100715.06;5528443;26;20004;-38
2024/04/25 04:42:49;;;;;;;5.07;2.20;;;;;;;4.11;100.00;100719.03;5528355;26;20316;-38
2024/04/25 04:45:14;;;;;;;2.57;1.70;;;;;;;4.10;100.00;100704.00;5528612;26;20357;-38
2024/04/25 04:47:40;;;;;;;4.53;2.27;;;;;;;4.13;100.00;100711.63;5528676;26;19997;-38
2024/04/25 04:50:06;;;;;;;3.95;1.95;;;;;;;4.14;100.00;100713.25;5528947;26;19997;-38
2024/04/25 04:52:32;;;;;;;4.90;1.88;;;;;;;4.17;100.00;100710.22;5528140;26;20008;-38
2024/04/25 04:54:58;;;;;;;4.53;1.90;;;;;;;4.18;100.00;100711.88;5528769;26;19989;-38
2024/04/25 04:57:23;;;;;;;3.00;1.83;;;;;;;4.23;100.00;100713.97;5528476;26;19993;-38
2024/04/25 04:59:49;;;;;;;3.63;2.00;;;;;;;4.24;100.00;100716.44;5528960;26;20482;-37
2024/04/25 05:02:14;;;;;;;3.97;1.60;;;;;;;4.26;100.00;100718.94;5528122;26;19993;-38
2024/04/25 05:04:39;;;;;;;4.70;1.70;;;;;;;4.25;100.00;100709.28;5528853;26;19993;-37
2024/04/25 05:07:05;;;;;;;3.20;1.73;;;;;;;4.33;100.00;100723.31;5527960;26;20253;-37
2024/04/25 05:09:30;;;;;;;4.57;1.83;;;;;;;4.34;100.00;100722.31;5528264;26;20038;-37
2024/04/25 05:11:55;;;;;;;3.40;1.70;;;;;;;4.37;100.00;100734.47;5528067;26;19993;-37
2024/04/25 05:14:21;;;;;;;3.37;1.67;;;;;;;4.37;100.00;100721.91;5528262;26;20318;-38
2024/04/25 05:16:47;;;;;;;5.03;1.70;;;;;;;4.36;100.00;100719.44;5528522;26;20322;-38
2024/04/25 05:19:12;;;;;;;4.95;1.60;;;;;;;4.41;100.00;100721.53;5528639;26;20001;-38
2024/04/25 05:21:37;;;;;;;3.77;1.97;;;;;;;4.43;100.00;100724.84;5528099;26;19997;-38
2024/04/25 05:24:03;;;;;;;4.40;2.03;;;;;;;4.41;100.00;100725.03;5528069;26;20008;-37
2024/04/25 05:26:28;;;;;;;3.70;2.00;;;;;;;4.41;100.00;100722.38;5527599;26;20005;-38
2024/04/25 05:28:53;;;;;;;3.07;1.83;;;;;;;4.38;100.00;100720.88;5528339;26;19989;-38
2024/04/25 05:31:19;;;;;;;4.27;2.57;;;;;;;4.45;100.00;100729.00;5527960;26;20001;-38
2024/04/25 05:33:48;;;;;;;4.40;2.70;;;;;;;4.50;100.00;100720.38;5527892;26;19997;-38
2024/04/25 05:36:13;;;;;;;5.38;2.90;;;;;;;4.47;100.00;100712.72;5528088;26;20006;-38
2024/04/25 05:38:39;;;;;;;6.13;3.37;;;;;;;4.55;100.00;100709.91;5528478;26;20093;-38
2024/04/25 05:41:04;;;;;;;7.13;3.07;;;;;;;4.62;100.00;100716.97;5528026;26;20398;-38
2024/04/25 05:43:30;;;;;;;5.53;3.20;;;;;;;4.70;100.00;100721.34;5527793;26;19993;-38
2024/04/25 05:45:55;;;;;;;7.17;3.47;;;;;;;4.73;100.00;100714.75;5528091;26;20314;-39
2024/04/25 05:48:20;;;;;;;8.40;3.77;;;;;;;4.77;100.00;100714.19;5527778;26;20002;-38
2024/04/25 05:50:46;;;;;;;7.87;3.90;;;;;;;4.77;100.00;100705.31;5527745;26;19993;-38
2024/04/25 05:53:11;;;;;;;5.33;3.70;;;;;;;4.82;100.00;100714.41;5527184;26;19998;-39
2024/04/25 05:55:38;;;;;;;7.57;4.30;;;;;;;4.89;100.00;100712.63;5527950;26;20231;-39
2024/04/25 05:58:04;;;;;;;10.07;4.78;;;;;;;4.86;100.00;100707.66;5527517;26;20005;-39
2024/04/25 06:00:29;;;;;;;7.07;4.50;;;;;;;4.93;100.00;100701.50;5527590;26;19994;-39
2024/04/25 06:02:55;;;;;;;8.83;4.93;;;;;;;4.89;100.00;100701.91;5526619;26;20251;-39
2024/04/25 06:05:21;;;;;;;9.07;4.93;;;;;;;4.98;100.00;100717.81;5527489;26;19994;-39
2024/04/25 06:07:46;;;;;;;8.50;5.07;;;;;;;4.99;100.00;100711.44;5527701;26;20005;-39
2024/04/25 06:10:11;;;;;;;8.63;4.90;;;;;;;5.03;100.00;100715.38;5528073;26;19994;-39
2024/04/25 06:12:37;;;;;;;8.10;4.47;;;;;;;4.96;100.00;100704.59;5527543;26;20014;-39
2024/04/25 06:15:02;;;;;;;6.37;4.77;;;;;;;5.08;100.00;100712.94;5527357;26;19993;-38
2024/04/25 06:17:27;;;;;;;7.53;4.60;;;;;;;5.06;100.00;100713.13;5527879;26;19994;-38
2024/04/25 06:19:53;;;;;;;6.90;4.30;;;;;;;5.11;100.00;100704.47;5527446;26;19993;-38
2024/04/25 06:22:18;;;;;;;10.10;4.40;;;;;;;5.13;100.00;100711.31;5527051;26;20001;-38
2024/04/25 06:24:44;;;;;;;7.22;4.18;;;;;;;5.08;100.00;100688.81;5527813;26;20323;-38
2024/04/25 06:27:09;;;;;;;6.43;4.17;;;;;;;5.19;100.00;100707.00;5527205;26;19997;-38
2024/04/25 06:29:34;;;;;;;6.63;3.93;;;;;;;5.22;100.00;100709.31;5527827;26;19997;-38
2024/04/25 06:32:00;;;;;;;8.93;4.10;;;;;;;5.22;100.00;100714.66;5527030;26;20066;-38
2024/04/25 06:34:25;;;;;;;4.27;3.00;;;;;;;5.24;100.00;100709.09;5527026;26;20037;-38
2024/04/25 06:36:50;;;;;;;6.93;3.63;;;;;;;5.24;100.00;100706.41;5527337;26;19989;-38
2024/04/25 06:39:16;;;;;;;6.43;3.30;;;;;;;5.25;100.00;100714.25;5527633;26;20001;-38
2024/04/25 06:41:42;;;;;;;11.00;4.70;;;;;;;5.21;100.00;100701.44;5526695;26;19993;-38
2024/04/25 06:44:07;;;;;;;7.60;3.35;;;;;;;5.18;100.00;100694.63;5527296;26;20004;-39
2024/04/25 06:46:33;;;;;;;4.70;2.97;;;;;;;5.23;100.00;100702.09;5526797;26;20375;-39
2024/04/25 06:48:58;;;;;;;6.63;3.60;;;;;;;5.17;100.00;100690.28;5527112;26;20040;-39
2024/04/25 06:51:25;;;;;;;7.10;3.70;;;;;;;5.20;100.00;100697.09;5526812;26;20069;-39
2024/04/25 06:53:50;;;;;;;;;;;;;;;5.33;100.00;100695.31;5527674;26;20429;-39
2024/04/25 06:56:15;;;;;;;6.78;3.63;;;;;;;5.27;100.00;100689.91;5527003;26;19924;-39
2024/04/25 06:58:41;;;;;;;7.77;3.63;;;;;;;5.34;100.00;100696.13;5526746;26;19989;-39
2024/04/25 07:01:06;;;;;;;6.37;3.37;;;;;;;5.38;100.00;100695.53;5526640;26;20315;-39
2024/04/25 07:03:32;;;;;;;5.65;3.50;;;;;;;5.45;100.00;100698.25;5526252;26;19996;-38
2024/04/25 07:05:57;;;;;;;7.82;4.10;;;;;;;5.54;100.00;100693.53;5526735;26;20002;-38
2024/04/25 07:08:23;;;;;;;6.53;3.37;;;;;;;5.62;100.00;100686.13;5526601;26;20008;-38
2024/04/25 07:10:48;;;;;;;7.60;4.10;;;;;;;5.74;100.00;100694.41;5526737;26;19989;-38
2024/04/25 07:13:14;;;;;;;7.38;3.67;;;;;;;5.79;100.00;100688.44;5526221;26;20211;-38
2024/04/25 07:15:39;;;;;;;6.93;3.30;;;;;;;5.84;100.00;100694.84;5494937;26;20008;-39
2024/04/25 07:18:06;;;;;;;5.57;3.50;;;;;;;5.81;100.00;100686.38;5530300;26;19989;-39
2024/04/25 07:20:32;;;;;;;4.80;3.10;;;;;;;5.89;100.00;100681.63;5529926;26;19993;-39
2024/04/25 07:22:57;;;;;;;5.97;3.08;;;;;;;5.97;100.00;100679.84;5530304;26;20367;-38
2024/04/25 07:25:25;;;;;;;5.00;3.07;;;;;;;6.04;100.00;100678.78;5530075;26;20053;-39
2024/04/25 07:27:50;;;;;;;6.47;2.70;;;;;;;6.07;100.00;100685.63;5529834;26;19989;-38
2024/04/25 07:30:15;;;;;;;7.30;2.67;;;;;;;6.10;100.00;100677.13;5530553;26;20005;-38
2024/04/25 07:32:41;;;;;;;7.67;2.57;;;;;;;6.16;100.00;100677.16;5529715;26;19989;-38
2024/04/25 07:35:06;;;;;;;4.70;2.60;;;;;;;6.25;100.00;100676.97;5531033;26;20001;-38
2024/04/25 07:37:33;;;;;;;3.67;2.23;;;;;;;6.27;100.00;100674.88;5529999;26;19989;-38
2024/04/25 07:39:59;;;;;;;4.85;2.15;;;;;;;6.38;100.00;100672.41;5529999;26;20397;-38
2024/04/25 07:42:25;;;;;;;5.50;2.50;;;;;;;6.48;100.00;100669.28;5529650;26;20058;-39
2024/04/25 07:44:50;;;;;;;2.70;1.73;;;;;;;6.51;100.00;100673.44;5530250;26;19997;-39
2024/04/25 07:47:16;;;;;;;4.43;2.10;;;;;;;6.53;100.00;100671.34;5529447;26;19993;-39
2024/04/25 07:49:41;;;;;;;3.47;1.85;;;;;;;6.58;100.00;100664.31;5529595;26;20034;-39
2024/04/25 07:52:07;;;;;;;6.87;2.50;;;;;;;6.66;100.00;100672.16;5529315;26;20454;-39
2024/04/25 07:54:32;;;;;;;6.72;2.13;;;;;;;6.68;100.00;100680.84;5529576;26;20226;-39
2024/04/25 07:56:58;;;;;;;4.90;2.10;;;;;;;6.74;100.00;100671.13;5529528;26;19996;-39
2024/04/25 07:59:25;;;;;;;4.47;1.90;;;;;;;6.72;100.00;100667.81;5529807;26;20294;-39
2024/04/25 08:01:50;;;;;;;5.28;2.10;;;;;;;6.72;100.00;100668.63;5529043;26;19989;-39
2024/04/25 08:04:16;;;;;;;5.68;2.05;;;;;;;6.72;100.00;100667.81;5530003;26;20302;-39
2024/04/25 08:06:42;;;;;;;;;;;;;;;6.91;100.00;100672.31;5529824;26;19989;-39
2024/04/25 08:09:07;;;;;;;4.35;1.90;;;;;;;6.88;100.00;100669.22;5529267;26;19930;-39
2024/04/25 08:11:32;;;;;;;5.70;2.20;;;;;;;6.96;100.00;100674.38;5529273;26;20382;-39
2024/04/25 08:13:58;;;;;;;3.57;2.20;;;;;;;7.04;100.00;100659.88;5529058;26;19993;-39
2024/04/25 08:16:23;;;;;;;5.03;2.30;;;;;;;7.19;100.00;100668.50;5529133;26;20108;-38
2024/04/25 08:18:48;;;;;;;6.23;2.50;;;;;;;7.22;100.00;100663.53;5529420;26;20005;-38
2024/04/25 08:21:14;;;;;;;5.37;2.70;;;;;;;7.28;100.00;100661.03;5529399;26;20417;-39
2024/04/25 08:23:40;;;;;;;5.10;2.50;;;;;;;7.39;100.00;100653.09;5528824;26;20310;-39
2024/04/25 08:26:05;;;;;;;5.53;2.47;;;;;;;7.52;100.00;100646.84;5528885;26;19996;-39
2024/04/25 08:28:31;;;;;;;4.83;2.47;;;;;;;7.78;100.00;100653.91;5529081;26;20345;-38
2024/04/25 08:30:56;;;;;;;5.33;2.63;;;;;;;7.84;100.00;100657.59;5528959;26;20311;-38
2024/04/25 08:33:21;;;;;;;4.82;2.70;;;;;;;7.90;100.00;100644.09;5528507;26;20242;-38
2024/04/25 08:35:47;;;;;;;4.17;2.40;;;;;;;7.99;100.00;100658.94;5529610;26;20062;-38
2024/04/25 08:38:12;;;;;;;6.57;3.03;;;;;;;8.00;100.00;100657.91;5529231;26;20005;-38
2024/04/25 08:40:38;;;;;;;6.57;2.60;;;;;;;8.03;100.00;100648.56;5529091;26;20061;-38
2024/04/25 08:43:04;;;;;;;5.70;2.85;;;;;;;8.10;100.00;100654.72;5528550;26;20013;-39
2024/04/25 08:45:30;;;;;;;5.38;3.03;;;;;;;8.12;100.00;100644.56;5528785;26;19989;-39
2024/04/25 08:47:58;;;;;;;4.03;2.40;;;;;;;8.14;100.00;100633.56;5528444;26;20037;-39
2024/04/25 08:50:27;;;;;;;5.47;2.58;;;;;;;8.29;100.00;100634.03;5528679;26;19997;-47
2024/04/25 08:52:54;;;;;;;5.47;3.63;;;;;;;8.36;100.00;100651.00;5528445;25;20433;-39
2024/04/25 08:55:24;;;;;;;5.43;3.00;;;;;;;8.38;100.00;100642.69;5528764;26;19997;-39
2024/04/25 08:57:49;;;;;;;6.93;2.90;;;;;;;8.47;100.00;100644.91;5528640;26;19993;-39
2024/04/25 09:00:15;;;;;;;4.15;2.10;;;;;;;8.49;100.00;100639.28;5529156;26;19997;-39
2024/04/25 09:02:43;;;;;;;8.20;2.53;;;;;;;8.63;100.00;100639.97;5528327;26;19997;-39
2024/04/25 09:05:12;;;;;;;4.78;2.03;;;;;;;8.62;100.00;100622.16;5528819;26;20210;-39
2024/04/25 09:07:40;;;;;;;5.93;2.25;;;;;;;8.73;100.00;100634.88;5528487;26;20037;-39
2024/04/25 09:10:06;;;;;;;4.88;2.00;;;;;;;8.82;100.00;100635.41;5528780;26;20046;-39
2024/04/25 09:12:34;;;;;;;6.65;3.13;;;;;;;8.95;100.00;100622.63;5528375;26;20005;-39
2024/04/25 09:15:01;;;;;;;5.55;2.25;;;;;;;9.08;100.00;100626.19;5528609;26;20001;-39
2024/04/25 09:17:26;;;;;;;5.32;1.95;;;;;;;8.97;100.00;100598.09;5529232;26;20004;-39
2024/04/25 09:19:52;;;;;;;5.05;1.70;;;;;;;9.19;100.00;100607.38;5528617;26;20001;-39
2024/04/25 09:22:19;;;;;;;5.88;2.20;;;;;;;9.17;100.00;100608.63;5528299;26;20433;-39
2024/04/25 09:24:44;;;;;;;4.90;1.90;;;;;;;9.15;100.00;100603.47;5528482;26;19990;-39
2024/04/25 09:27:10;;;;;;;3.53;1.50;;;;;;;9.21;100.00;100601.75;5528473;26;20505;-39
2024/04/25 09:29:35;;;;;;;5.95;1.73;;;;;;;9.01;100.00;100605.53;5528305;26;19994;-39
2024/04/25 09:32:02;;;;;;;6.27;1.53;;;;;;;8.88;100.00;100605.69;5528159;26;20311;-39
2024/04/25 09:34:27;;;;;;;4.95;1.60;;;;;;;8.77;100.00;100607.25;5528374;26;20079;-39
2024/04/25 09:36:54;;;;;;;4.70;1.42;;;;;;;8.60;100.00;100611.59;5527259;26;20046;-39
2024/04/25 09:39:19;;;;;;;4.55;1.55;;;;;;;8.49;100.00;100607.78;5527702;26;20042;-39
2024/04/25 09:41:46;;;;;;;3.73;1.40;;;;;;;8.31;100.00;100588.84;5528044;26;20005;-39
2024/04/25 09:44:12;;;;;;;4.47;1.35;;;;;;;8.39;100.00;100604.75;5527924;26;20001;-39
2024/04/25 09:46:40;;;;;;;3.17;1.45;;;;;;;8.36;100.00;100596.28;5527538;26;20012;-39
2024/04/25 09:49:06;;;;;;;2.67;1.05;;;;;;;8.27;100.00;100603.81;5527844;26;20002;-39
2024/04/25 09:51:51;;;;;;;4.55;1.45;;;;;;;8.34;100.00;100607.25;5527736;26;20008;-39
2024/04/25 09:54:25;;;;;;;4.18;1.60;;;;;;;8.34;100.00;100601.03;5527707;26;20092;-39
2024/04/25 09:56:56;;;;;;;4.97;1.67;;;;;;;8.40;100.00;100603.72;5528261;26;20067;-39
2024/04/25 09:59:44;;;;;;;8.90;2.25;;;;;;;8.57;100.00;100600.44;5528343;26;20001;-39
2024/04/25 10:02:19;;;;;;;3.50;2.20;;;;;;;8.65;100.00;100597.47;5528166;26;20009;-39
2024/04/25 10:04:45;;;;;;;5.35;2.53;;;;;;;8.67;100.00;100600.75;5528216;26;20037;-39
2024/04/25 10:07:15;;;;;;;6.75;2.50;;;;;;;8.68;100.00;100586.22;5527860;26;19993;-39
2024/04/25 10:09:42;;;;;;;6.43;2.60;;;;;;;8.73;100.00;100589.88;5528453;26;20007;-39
2024/04/25 10:12:08;;;;;;;4.30;2.60;;;;;;;8.82;100.00;100586.88;5527493;26;20431;-39
2024/04/25 10:14:33;;;;;;;6.10;2.60;;;;;;;8.88;100.00;100583.28;5528006;26;20038;-39
2024/04/25 10:16:59;;;;;;;6.03;2.70;;;;;;;9.00;100.00;100590.41;5527416;26;20008;-39
2024/04/25 10:19:35;;;;;;;4.90;2.67;;;;;;;9.13;100.00;100585.91;5527807;26;19993;-39
2024/04/25 10:22:00;;;;;;;5.50;2.65;;;;;;;9.08;100.00;100572.25;5528205;26;19998;-39
2024/04/25 10:24:26;;;;;;;6.40;3.30;;;;;;;9.13;100.00;100575.94;5527944;26;20085;-39
2024/04/25 10:26:51;;;;;;;4.40;3.10;;;;;;;9.14;100.00;100571.34;5527982;26;20421;-39
2024/04/25 10:29:16;;;;;;;8.37;3.40;;;;;;;9.14;100.00;100569.47;5527876;26;20456;-39
2024/04/25 10:31:42;;;;;;;5.03;3.47;;;;;;;9.14;100.00;100565.97;5527850;26;20008;-39
2024/04/25 10:34:08;;;;;;;6.47;3.57;;;;;;;9.18;100.00;100572.53;5527732;26;20263;-39
2024/04/25 10:36:34;;;;;;;5.63;2.92;;;;;;;9.21;100.00;100562.09;5527189;26;20005;-39
2024/04/25 10:39:00;;;;;;;;;;;;;;;9.41;100.00;100559.13;5528614;26;20000;-39
2024/04/25 10:41:36;;;;;;;5.72;2.80;;;;;;;9.29;100.00;100536.69;5527053;26;19931;-39
2024/04/25 10:44:02;;;;;;;4.53;2.63;;;;;;;9.41;100.00;100551.00;5527379;26;19990;-39
2024/04/25 10:46:28;;;;;;;4.38;2.75;;;;;;;9.31;100.00;100547.22;5527321;26;20452;-39
2024/04/25 10:48:54;;;;;;;5.93;2.45;;;;;;;9.23;100.00;100557.31;5527525;26;19994;-39
2024/04/25 10:51:20;;;;;;;4.25;2.10;;;;;;;9.04;100.00;100577.28;5526861;26;20021;-39
2024/04/25 10:53:45;;;;;;;4.45;1.60;;;;;;;8.58;100.00;100584.03;5526635;26;20453;-39
2024/04/25 10:56:11;;;;;;;4.38;1.27;;;;;;;8.02;100.00;100586.84;5526826;26;20009;-39
2024/04/25 10:58:37;;;;;;;5.38;1.17;;;;;;;7.67;100.00;100598.09;5527505;26;20089;-39
2024/04/25 11:01:02;;;;;;;6.93;1.20;;;;;;;7.39;100.00;100579.66;5526923;26;20010;-39
2024/04/25 11:03:27;;;;;;;5.40;1.13;;;;;;;7.26;100.00;100577.03;5526421;26;20030;-39
2024/04/25 11:05:55;;;;;;;3.40;1.40;;;;;;;7.16;100.00;100574.81;5526764;26;19993;-38
2024/04/25 11:08:21;;;;;;;5.57;1.35;;;;;;;7.08;100.00;100570.50;5526586;26;20005;-38
2024/04/25 11:10:46;;;;;;;3.08;1.20;;;;;;;7.06;100.00;100567.19;5526588;26;20346;-39
2024/04/25 11:13:11;;;;;;;4.30;1.53;;;;;;;7.08;100.00;100572.38;5526270;26;20446;-39
2024/04/25 11:15:41;;;;;;;4.17;1.70;;;;;;;7.18;100.00;100561.97;5526624;26;20072;-39
2024/04/25 11:18:07;;;;;;;3.28;1.50;;;;;;;7.13;100.00;100561.81;5526788;26;20637;-38
2024/04/25 11:20:33;;;;;;;3.90;1.60;;;;;;;7.22;100.00;100564.03;5526747;26;20008;-38
2024/04/25 11:23:31;;;;;;;4.15;1.83;;;;;;;7.35;100.00;100560.41;5526494;26;19997;-38
2024/04/25 11:26:01;;;;;;;5.38;2.00;;;;;;;7.35;100.00;100555.03;5472842;26;20004;-39